Time;durP1;ratioP1;P1;durP2;ratioP2;P2;SDS_P1;SDS_P2;PMS_P1;PMS_P2;Temp;Humidity;BMP_temperature;BMP_pressure;BME280_temperature;BME280_humidity;BME280_pressure;Samples;Min_cycle;Max_cycle;Signal;HPM_P1;HPM_P2
2021/09/05 00:00:31;;;;;;;;;;;13.80;51.00;;;;;;4270243;33;20040;-40
2021/09/05 00:02:57;;;;;;;;;;;13.70;51.40;;;;;;4270218;33;20077;-40
2021/09/05 00:05:23;;;;;;;;;;;13.70;52.30;;;;;;4258405;33;19979;-40
2021/09/05 00:07:49;;;;;;;;;;;13.70;51.70;;;;;;4274128;33;19984;-41
2021/09/05 00:10:16;;;;;;;;;;;13.70;51.90;;;;;;4310349;33;19979;-41
2021/09/05 00:12:42;;;;;;;;;;;13.70;51.90;;;;;;4318194;33;19974;-40
2021/09/05 00:15:09;;;;;;;;;;;13.60;52.00;;;;;;4327714;33;19967;-39
2021/09/05 00:17:36;;;;;;;;;;;13.60;51.90;;;;;;4328064;33;20457;-39
2021/09/05 00:20:04;;;;;;;;;;;13.60;52.00;;;;;;4342028;33;20386;-40
2021/09/05 00:22:30;;;;;;;;;;;13.60;52.00;;;;;;4331581;33;19970;-39
2021/09/05 00:24:56;;;;;;;;;;;13.60;51.90;;;;;;4345345;33;19973;-40
2021/09/05 00:27:23;;;;;;;;;;;13.50;51.70;;;;;;4331612;33;19967;-39
2021/09/05 00:29:49;;;;;;;;;;;13.50;51.80;;;;;;4345280;33;19959;-40
2021/09/05 00:32:15;;;;;;;;;;;13.50;51.80;;;;;;4345420;33;20449;-40
2021/09/05 00:34:41;;;;;;;;;;;13.50;52.00;;;;;;4345291;33;19994;-40
2021/09/05 00:37:08;;;;;;;;;;;13.50;52.20;;;;;;4331248;33;19981;-39
2021/09/05 00:39:34;;;;;;;;;;;13.50;52.20;;;;;;4345282;33;20062;-40
2021/09/05 00:42:00;;;;;;;;;;;13.50;52.50;;;;;;4341787;33;19983;-39
2021/09/05 00:44:26;;;;;;;;;;;13.50;52.70;;;;;;4330768;33;20443;-41
2021/09/05 00:46:52;;;;;;;;;;;13.50;52.70;;;;;;4329982;33;19963;-40
2021/09/05 00:49:18;;;;;;;;;;;13.50;52.70;;;;;;4329946;33;19975;-40
2021/09/05 00:51:45;;;;;;;;;;;13.50;52.90;;;;;;4330027;33;19987;-42
2021/09/05 00:54:12;;;;;;;;;;;13.50;52.90;;;;;;4330167;33;19963;-41
2021/09/05 00:56:41;;;;;;;;;;;13.40;52.70;;;;;;4330544;33;19967;-39
2021/09/05 00:59:11;;;;;;;;;;;13.40;52.60;;;;;;4316835;33;19963;-40
2021/09/05 01:01:37;;;;;;;;;;;13.40;52.60;;;;;;4316438;33;20038;-40
2021/09/05 01:04:04;;;;;;;;;;;13.40;52.80;;;;;;4329585;33;20367;-39
2021/09/05 01:06:31;;;;;;;;;;;13.30;53.10;;;;;;4330418;33;19974;-41
2021/09/05 01:08:57;;;;;;;;;;;13.30;53.10;;;;;;4316274;33;19970;-40
2021/09/05 01:11:24;;;;;;;;;;;13.30;53.10;;;;;;4330072;33;19966;-41
2021/09/05 01:13:50;;;;;;;;;;;13.30;53.20;;;;;;4341159;33;20010;-41
2021/09/05 01:16:27;;;;;;;;;;;13.20;53.20;;;;;;4344816;33;19970;-41
2021/09/05 01:18:53;;;;;;;;;;;13.20;53.40;;;;;;4344751;33;19994;-41
2021/09/05 01:21:22;;;;;;;;;;;13.20;53.70;;;;;;4344572;33;19963;-40
2021/09/05 01:23:48;;;;;;;;;;;13.20;53.90;;;;;;4344318;33;19959;-39
2021/09/05 01:26:15;;;;;;;;;;;13.20;53.80;;;;;;4344352;33;20006;-40
2021/09/05 01:28:41;;;;;;;;;;;13.20;53.80;;;;;;4344317;33;19971;-40
2021/09/05 01:31:08;;;;;;;;;;;13.10;53.80;;;;;;4344343;33;19967;-40
2021/09/05 01:33:34;;;;;;;;;;;13.10;53.70;;;;;;4318782;33;19967;-39
2021/09/05 01:36:00;;;;;;;;;;;13.10;53.80;;;;;;4344612;33;19983;-40
2021/09/05 01:38:26;;;;;;;;;;;13.10;54.00;;;;;;4314610;33;20457;-41
2021/09/05 01:40:52;;;;;;;;;;;13.10;54.80;;;;;;4326918;33;20057;-38
2021/09/05 01:43:18;;;;;;;;;;;13.10;54.20;;;;;;4316087;33;19967;-39
2021/09/05 01:45:45;;;;;;;;;;;13.10;54.40;;;;;;4312211;33;20448;-41
2021/09/05 01:48:11;;;;;;;;;;;13.10;54.70;;;;;;4312461;33;20091;-40
2021/09/05 01:50:37;;;;;;;;;;;13.10;55.00;;;;;;4300386;33;20468;-40
2021/09/05 01:53:03;;;;;;;;;;;13.10;55.60;;;;;;4312088;33;19970;-41
2021/09/05 01:55:30;;;;;;;;;;;13.10;54.90;;;;;;4312391;33;20389;-41
2021/09/05 01:57:56;;;;;;;;;;;13.10;54.80;;;;;;4312370;33;19975;-41
2021/09/05 02:00:22;;;;;;;;;;;13.10;54.90;;;;;;4311970;33;19974;-41
2021/09/05 02:02:48;;;;;;;;;;;13.10;55.10;;;;;;4312408;33;19983;-41
2021/09/05 02:05:14;;;;;;;;;;;13.10;55.00;;;;;;4311928;33;20452;-40
2021/09/05 02:07:40;;;;;;;;;;;13.10;55.00;;;;;;4312260;33;19975;-40
2021/09/05 02:10:07;;;;;;;;;;;13.10;55.00;;;;;;4336961;33;19978;-40
2021/09/05 02:12:33;;;;;;;;;;;13.20;55.20;;;;;;4343884;33;19967;-40
2021/09/05 02:14:59;;;;;;;;;;;13.20;55.20;;;;;;4343943;33;19962;-41
2021/09/05 02:17:26;;;;;;;;;;;13.30;55.20;;;;;;4343575;33;20489;-40
2021/09/05 02:19:52;;;;;;;;;;;13.30;55.20;;;;;;4343870;33;19973;-40
2021/09/05 02:22:18;;;;;;;;;;;13.40;55.00;;;;;;4343720;33;20075;-40
2021/09/05 02:24:44;;;;;;;;;;;13.50;54.80;;;;;;4343420;33;19974;-40
2021/09/05 02:27:10;;;;;;;;;;;13.50;54.60;;;;;;4343725;33;19963;-39
2021/09/05 02:29:36;;;;;;;;;;;13.60;54.50;;;;;;4343846;33;19974;-37
2021/09/05 02:32:03;;;;;;;;;;;13.60;54.30;;;;;;4343543;33;20005;-40
2021/09/05 02:34:29;;;;;;;;;;;13.60;54.30;;;;;;4343793;33;19969;-40
2021/09/05 02:36:56;;;;;;;;;;;13.70;54.30;;;;;;4342770;33;20476;-41
2021/09/05 02:39:22;;;;;;;;;;;13.70;54.30;;;;;;4343568;33;20419;-40
2021/09/05 02:41:48;;;;;;;;;;;13.70;54.30;;;;;;4343236;33;19977;-40
2021/09/05 02:44:14;;;;;;;;;;;13.70;54.30;;;;;;4343734;32;20058;-39
2021/09/05 02:46:41;;;;;;;;;;;13.80;54.30;;;;;;4343437;32;20549;-39
2021/09/05 02:49:07;;;;;;;;;;;13.80;54.20;;;;;;4343775;32;20002;-41
2021/09/05 02:51:33;;;;;;;;;;;13.80;54.00;;;;;;4343734;32;19973;-40
2021/09/05 02:53:59;;;;;;;;;;;13.80;53.80;;;;;;4343426;32;19959;-40
2021/09/05 02:56:26;;;;;;;;;;;13.90;53.90;;;;;;4343096;32;20372;-40
2021/09/05 02:58:52;;;;;;;;;;;14.10;54.00;;;;;;4343733;32;19967;-40
2021/09/05 03:01:18;;;;;;;;;;;14.20;53.80;;;;;;4343257;32;19967;-40
2021/09/05 03:03:44;;;;;;;;;;;14.40;53.60;;;;;;4343324;32;20034;-39
2021/09/05 03:06:10;;;;;;;;;;;14.60;53.40;;;;;;4343346;32;20052;-39
2021/09/05 03:08:36;;;;;;;;;;;14.80;52.60;;;;;;4343553;32;19967;-40
2021/09/05 03:11:03;;;;;;;;;;;15.00;51.90;;;;;;4343404;32;19967;-40
2021/09/05 03:13:29;;;;;;;;;;;15.10;51.50;;;;;;4353113;32;20604;-40
2021/09/05 03:15:55;;;;;;;;;;;15.30;51.30;;;;;;4358757;32;19985;-39
2021/09/05 03:18:22;;;;;;;;;;;15.40;51.20;;;;;;4358487;32;20016;-39
2021/09/05 03:20:48;;;;;;;;;;;15.60;51.10;;;;;;4358108;32;19970;-41
2021/09/05 03:23:14;;;;;;;;;;;15.70;50.60;;;;;;4357992;32;19974;-40
2021/09/05 03:25:40;;;;;;;;;;;15.80;50.00;;;;;;4357965;32;20430;-39
2021/09/05 03:28:06;;;;;;;;;;;15.90;49.70;;;;;;4358136;32;20012;-39
2021/09/05 03:30:33;;;;;;;;;;;15.90;49.40;;;;;;4358057;32;20112;-40
2021/09/05 03:32:59;;;;;;;;;;;15.90;49.30;;;;;;4357935;32;20417;-41
2021/09/05 03:35:25;;;;;;;;;;;16.00;49.10;;;;;;4344031;32;20382;-41
2021/09/05 03:37:51;;;;;;;;;;;16.00;49.10;;;;;;4358194;32;20467;-41
2021/09/05 03:40:18;;;;;;;;;;;16.00;48.90;;;;;;4358188;32;20047;-41
2021/09/05 03:42:44;;;;;;;;;;;16.10;48.80;;;;;;4350522;32;19967;-41
2021/09/05 03:45:11;;;;;;;;;;;16.10;48.70;;;;;;4343265;32;20042;-41
2021/09/05 03:47:38;;;;;;;;;;;16.10;48.60;;;;;;4343253;33;19970;-41
2021/09/05 03:50:05;;;;;;;;;;;16.10;48.50;;;;;;4330715;33;19998;-42
2021/09/05 03:52:33;;;;;;;;;;;16.10;48.60;;;;;;4346260;33;20005;-41
2021/09/05 03:55:00;;;;;;;;;;;16.10;48.90;;;;;;4345974;32;20081;-41
2021/09/05 03:57:26;;;;;;;;;;;16.10;48.60;;;;;;4345231;32;19971;-40
2021/09/05 03:59:52;;;;;;;;;;;16.10;48.70;;;;;;4345599;32;19970;-41
2021/09/05 04:02:18;;;;;;;;;;;16.20;48.90;;;;;;4345643;33;19971;-40
2021/09/05 04:04:45;;;;;;;;;;;16.30;48.70;;;;;;4313007;33;20116;-40
2021/09/05 04:07:14;;;;;;;;;;;16.50;48.80;;;;;;4301787;33;20399;-41
2021/09/05 04:12:25;;;;;;;;;;;17.00;47.10;;;;;;4303063;33;19964;-40
2021/09/05 04:14:51;;;;;;;;;;;17.10;46.00;;;;;;4284461;33;19976;-41
2021/09/05 04:17:17;;;;;;;;;;;17.10;45.70;;;;;;4284971;33;19979;-39
2021/09/05 04:19:43;;;;;;;;;;;17.20;45.90;;;;;;4284336;33;19964;-39
2021/09/05 04:22:10;;;;;;;;;;;17.20;45.40;;;;;;4284428;33;20050;-40
2021/09/05 04:24:36;;;;;;;;;;;17.20;45.70;;;;;;4284197;33;19988;-39
2021/09/05 04:27:02;;;;;;;;;;;17.30;45.70;;;;;;4284367;33;19992;-40
2021/09/05 04:29:28;;;;;;;;;;;17.40;45.10;;;;;;4284415;33;20070;-40
2021/09/05 04:31:54;;;;;;;;;;;17.50;45.10;;;;;;4284509;33;20039;-41
2021/09/05 04:34:21;;;;;;;;;;;17.50;44.10;;;;;;4284250;33;20470;-40
2021/09/05 04:36:47;;;;;;;;;;;17.50;44.30;;;;;;4272089;33;20424;-40
2021/09/05 04:39:13;;;;;;;;;;;17.50;44.30;;;;;;4284722;33;20018;-40
2021/09/05 04:41:39;;;;;;;;;;;17.50;44.40;;;;;;4288091;33;19964;-40
2021/09/05 04:44:05;;;;;;;;;;;17.60;44.70;;;;;;4298298;33;19998;-41
2021/09/05 04:46:32;;;;;;;;;;;17.70;44.50;;;;;;4334701;33;20050;-40
2021/09/05 04:48:58;;;;;;;;;;;17.80;44.50;;;;;;4344835;33;20054;-40
2021/09/05 04:51:24;;;;;;;;;;;17.90;44.60;;;;;;4344849;33;20091;-40
2021/09/05 04:53:50;;;;;;;;;;;18.00;44.60;;;;;;4344864;33;20410;-41
2021/09/05 04:56:16;;;;;;;;;;;18.20;44.10;;;;;;4345117;33;19986;-37
2021/09/05 04:58:43;;;;;;;;;;;18.30;43.60;;;;;;4345565;33;20038;-40
2021/09/05 05:01:09;;;;;;;;;;;18.40;43.70;;;;;;4344570;32;20427;-40
2021/09/05 05:03:35;;;;;;;;;;;18.50;43.10;;;;;;4344532;33;20036;-39
2021/09/05 05:06:05;;;;;;;;;;;18.50;43.20;;;;;;4345052;33;19973;-39
2021/09/05 05:08:31;;;;;;;;;;;18.60;42.60;;;;;;4344604;33;19970;-39
2021/09/05 05:10:58;;;;;;;;;;;18.60;42.20;;;;;;4330909;33;19985;-40
2021/09/05 05:13:25;;;;;;;;;;;18.70;42.50;;;;;;4339853;32;19958;-39
2021/09/05 05:15:52;;;;;;;;;;;18.80;42.70;;;;;;4359294;32;19978;-39
2021/09/05 05:18:18;;;;;;;;;;;19.10;42.40;;;;;;4345555;32;20430;-39
2021/09/05 05:20:44;;;;;;;;;;;19.30;41.70;;;;;;4359509;32;20001;-39
2021/09/05 05:23:10;;;;;;;;;;;19.40;41.20;;;;;;4359448;32;19978;-39
2021/09/05 05:25:36;;;;;;;;;;;19.50;40.70;;;;;;4359066;32;19982;-39
2021/09/05 05:28:03;;;;;;;;;;;19.60;39.90;;;;;;4359204;32;19975;-39
2021/09/05 05:30:29;;;;;;;;;;;19.70;39.60;;;;;;4345136;32;20055;-40
2021/09/05 05:32:58;;;;;;;;;;;19.70;39.20;;;;;;4358759;32;20057;-39
2021/09/05 05:35:27;;;;;;;;;;;19.70;39.70;;;;;;4358944;32;20057;-39
2021/09/05 05:37:53;;;;;;;;;;;19.80;39.40;;;;;;4344890;32;20001;-38
2021/09/05 05:40:24;;;;;;;;;;;19.90;39.70;;;;;;4358939;32;20431;-39
2021/09/05 05:42:54;;;;;;;;;;;20.10;38.70;;;;;;4334218;33;19997;-39
2021/09/05 05:45:20;;;;;;;;;;;20.20;38.30;;;;;;4329233;33;20482;-39
2021/09/05 05:47:46;;;;;;;;;;;20.30;38.20;;;;;;4329128;33;20085;-39
2021/09/05 05:50:13;;;;;;;;;;;20.50;38.50;;;;;;4329451;33;19967;-39
2021/09/05 05:52:39;;;;;;;;;;;20.60;37.50;;;;;;4328973;33;20013;-40
2021/09/05 05:55:06;;;;;;;;;;;20.70;37.90;;;;;;4329085;33;20068;-40
2021/09/05 05:57:32;;;;;;;;;;;20.80;37.50;;;;;;4328725;33;19982;-39
2021/09/05 05:59:58;;;;;;;;;;;20.90;37.20;;;;;;4327500;33;20038;-39
2021/09/05 06:02:24;;;;;;;;;;;21.00;36.10;;;;;;4329232;33;19979;-40
2021/09/05 06:04:50;;;;;;;;;;;21.10;36.10;;;;;;4327310;33;19967;-40
2021/09/05 06:07:16;;;;;;;;;;;21.20;36.10;;;;;;4329259;33;20438;-41
2021/09/05 06:09:42;;;;;;;;;;;21.40;36.30;;;;;;4328672;33;20541;-39
2021/09/05 06:12:09;;;;;;;;;;;21.50;35.90;;;;;;4329580;33;19994;-40
2021/09/05 06:14:36;;;;;;;;;;;21.60;36.10;;;;;;4343987;33;19992;-40
2021/09/05 06:17:03;;;;;;;;;;;21.90;35.80;;;;;;4330219;33;19967;-39
2021/09/05 06:19:30;;;;;;;;;;;22.10;35.60;;;;;;4343595;33;20069;-39
2021/09/05 06:21:56;;;;;;;;;;;22.10;34.50;;;;;;4329958;33;19974;-39
2021/09/05 06:24:22;;;;;;;;;;;22.10;34.10;;;;;;4343683;33;19959;-39
2021/09/05 06:26:48;;;;;;;;;;;22.00;33.30;;;;;;4343574;33;20366;-39
2021/09/05 06:29:14;;;;;;;;;;;21.90;34.40;;;;;;4343465;33;20480;-39
2021/09/05 06:31:40;;;;;;;;;;;21.80;33.30;;;;;;4344073;33;20013;-39
2021/09/05 06:34:07;;;;;;;;;;;21.80;33.70;;;;;;4343018;33;20470;-39
2021/09/05 06:36:33;;;;;;;;;;;21.80;33.70;;;;;;4343665;33;20382;-39
2021/09/05 06:38:59;;;;;;;;;;;21.90;33.10;;;;;;4343631;33;20418;-39
2021/09/05 06:41:25;;;;;;;;;;;21.90;33.50;;;;;;4343386;33;20484;-39
2021/09/05 06:43:52;;;;;;;;;;;21.90;33.30;;;;;;4358144;32;19978;-39
2021/09/05 06:46:18;;;;;;;;;;;21.80;33.40;;;;;;4358559;32;19970;-39
2021/09/05 06:48:44;;;;;;;;;;;21.80;33.50;;;;;;4358071;32;20059;-39
2021/09/05 06:51:10;;;;;;;;;;;21.70;33.70;;;;;;4344403;32;20045;-40
2021/09/05 06:53:37;;;;;;;;;;;21.70;33.80;;;;;;4358037;32;20463;-41
2021/09/05 06:56:03;;;;;;;;;;;21.70;34.10;;;;;;4358563;32;20454;-41
2021/09/05 06:58:30;;;;;;;;;;;21.80;34.30;;;;;;4358444;32;19973;-39
2021/09/05 07:00:56;;;;;;;;;;;22.00;34.10;;;;;;4358316;32;20044;-40
2021/09/05 07:03:22;;;;;;;;;;;22.10;33.50;;;;;;4358059;32;20441;-39
2021/09/05 07:05:48;;;;;;;;;;;22.30;33.70;;;;;;4358615;32;19969;-39
2021/09/05 07:08:14;;;;;;;;;;;22.40;33.20;;;;;;4358073;32;19969;-40
2021/09/05 07:10:41;;;;;;;;;;;22.60;33.00;;;;;;4358120;32;19970;-39
2021/09/05 07:13:07;;;;;;;;;;;22.70;31.80;;;;;;4343989;32;19966;-40
2021/09/05 07:15:36;;;;;;;;;;;22.60;31.60;;;;;;4357977;32;19969;-40
2021/09/05 07:18:03;;;;;;;;;;;22.60;31.80;;;;;;4358088;32;20467;-40
2021/09/05 07:20:29;;;;;;;;;;;22.60;31.80;;;;;;4357959;32;20020;-39
2021/09/05 07:22:55;;;;;;;;;;;22.70;32.40;;;;;;4358211;32;19993;-39
2021/09/05 07:25:22;;;;;;;;;;;22.70;32.20;;;;;;4346941;32;20407;-40
2021/09/05 07:27:48;;;;;;;;;;;22.70;31.60;;;;;;4360770;32;19974;-39
2021/09/05 07:30:15;;;;;;;;;;;22.80;31.10;;;;;;4360440;32;20035;-39
2021/09/05 07:32:42;;;;;;;;;;;22.70;31.80;;;;;;4360871;32;20387;-39
2021/09/05 07:35:08;;;;;;;;;;;22.80;30.90;;;;;;4360501;32;20006;-39
2021/09/05 07:37:34;;;;;;;;;;;22.80;31.20;;;;;;4360419;32;20422;-39
2021/09/05 07:40:01;;;;;;;;;;;22.80;31.70;;;;;;4360552;32;20049;-39
2021/09/05 07:42:27;;;;;;;;;;;22.80;31.60;;;;;;4354547;32;20487;-39
2021/09/05 07:44:53;;;;;;;;;;;22.90;31.60;;;;;;4345621;33;20528;-40
2021/09/05 07:47:20;;;;;;;;;;;22.90;31.60;;;;;;4345901;33;19970;-39
2021/09/05 07:49:46;;;;;;;;;;;23.00;30.50;;;;;;4345323;33;20394;-40
2021/09/05 07:52:12;;;;;;;;;;;23.00;30.20;;;;;;4345590;33;20045;-41
2021/09/05 07:54:38;;;;;;;;;;;23.00;30.00;;;;;;4345648;33;19963;-40
2021/09/05 07:57:04;;;;;;;;;;;22.90;29.60;;;;;;4345405;33;20395;-40
2021/09/05 07:59:31;;;;;;;;;;;22.70;29.30;;;;;;4345830;33;19978;-39
2021/09/05 08:01:57;;;;;;;;;;;22.60;29.80;;;;;;4345440;33;19977;-41
2021/09/05 08:04:23;;;;;;;;;;;22.60;30.20;;;;;;4345925;33;19959;-39
2021/09/05 08:06:49;;;;;;;;;;;22.50;30.30;;;;;;4345289;33;20367;-41
2021/09/05 08:09:16;;;;;;;;;;;22.30;29.60;;;;;;4345023;33;20009;-41
2021/09/05 08:11:42;;;;;;;;;;;22.20;29.60;;;;;;4345280;33;20487;-40
2021/09/05 08:14:08;;;;;;;;;;;22.10;29.50;;;;;;4345014;33;19974;-40
2021/09/05 08:16:36;;;;;;;;;;;22.00;29.80;;;;;;4345084;33;19963;-39
2021/09/05 08:19:02;;;;;;;;;;;22.00;30.00;;;;;;4345308;33;20065;-39
2021/09/05 08:21:28;;;;;;;;;;;22.00;30.50;;;;;;4345119;33;20045;-40
2021/09/05 08:23:54;;;;;;;;;;;21.90;30.20;;;;;;4345183;33;20420;-40
2021/09/05 08:26:23;;;;;;;;;;;21.90;30.20;;;;;;4344907;33;19974;-40
2021/09/05 08:28:50;;;;;;;;;;;21.90;30.70;;;;;;4345398;33;19963;-40
2021/09/05 08:31:17;;;;;;;;;;;22.00;30.60;;;;;;4344827;33;20386;-40
2021/09/05 08:33:43;;;;;;;;;;;22.00;30.40;;;;;;4344912;33;20451;-39
2021/09/05 08:36:09;;;;;;;;;;;22.00;30.00;;;;;;4344278;32;20006;-40
2021/09/05 08:38:35;;;;;;;;;;;22.00;30.30;;;;;;4345109;33;20474;-40
2021/09/05 08:41:02;;;;;;;;;;;22.00;30.00;;;;;;4344607;33;20422;-40
2021/09/05 08:43:28;;;;;;;;;;;22.10;30.00;;;;;;4357088;32;19963;-39
2021/09/05 08:45:54;;;;;;;;;;;22.10;30.00;;;;;;4359842;32;20001;-40
2021/09/05 08:48:21;;;;;;;;;;;22.20;30.00;;;;;;4359586;32;20407;-40
2021/09/05 08:50:48;;;;;;;;;;;22.30;30.00;;;;;;4360047;32;19970;-40
2021/09/05 08:53:16;;;;;;;;;;;22.30;30.00;;;;;;4359386;32;19972;-40
2021/09/05 08:55:43;;;;;;;;;;;22.30;30.00;;;;;;4359533;32;20363;-40
2021/09/05 08:58:09;;;;;;;;;;;22.20;30.10;;;;;;4359682;32;20013;-39
2021/09/05 09:00:36;;;;;;;;;;;22.20;30.70;;;;;;4359592;32;19966;-44
2021/09/05 09:03:02;;;;;;;;;;;22.10;30.00;;;;;;4359338;32;19966;-39
2021/09/05 09:05:36;;;;;;;;;;;22.10;30.40;;;;;;4345811;32;19958;-40
2021/09/05 09:08:04;;;;;;;;;;;22.20;30.70;;;;;;4359520;32;19966;-39
2021/09/05 09:10:31;;;;;;;;;;;22.20;30.50;;;;;;4359022;32;20398;-41
2021/09/05 09:12:57;;;;;;;;;;;22.30;29.70;;;;;;4359281;32;20041;-42
2021/09/05 09:15:25;;;;;;;;;;;22.30;29.70;;;;;;4359566;32;19958;-40
2021/09/05 09:17:56;;;;;;;;;;;22.30;29.80;;;;;;4344854;32;19978;-41
2021/09/05 09:20:42;;;;;;;;;;;22.30;30.00;;;;;;4359473;32;20057;-40
2021/09/05 09:23:09;;;;;;;;;;;22.30;29.90;;;;;;4359129;32;19966;-41
2021/09/05 09:25:36;;;;;;;;;;;22.30;29.90;;;;;;4359226;32;19967;-40
2021/09/05 09:28:06;;;;;;;;;;;22.40;29.80;;;;;;4344508;32;20063;-42
2021/09/05 09:30:36;;;;;;;;;;;22.50;29.50;;;;;;4345236;32;20005;-39
2021/09/05 09:33:02;;;;;;;;;;;22.70;29.50;;;;;;4358846;32;19959;-41
2021/09/05 09:35:47;;;;;;;;;;;22.90;28.90;;;;;;4359098;32;20063;-40
2021/09/05 09:38:15;;;;;;;;;;;23.10;28.90;;;;;;4358938;32;19962;-40
2021/09/05 09:40:42;;;;;;;;;;;23.20;28.50;;;;;;4359246;32;19962;-41
2021/09/05 09:43:21;;;;;;;;;;;23.20;28.40;;;;;;4334657;33;19967;-40
2021/09/05 09:45:48;;;;;;;;;;;23.20;28.70;;;;;;4329969;33;19989;-39
2021/09/05 09:48:26;;;;;;;;;;;23.20;29.00;;;;;;4343836;33;20037;-39
2021/09/05 09:51:00;;;;;;;;;;;23.10;28.70;;;;;;4344012;33;19978;-40
2021/09/05 09:53:28;;;;;;;;;;;23.00;28.90;;;;;;4344049;33;20430;-39
2021/09/05 09:55:56;;;;;;;;;;;22.90;29.30;;;;;;4343658;33;19993;-39
2021/09/05 09:58:22;;;;;;;;;;;22.80;29.30;;;;;;4343615;33;20075;-39
2021/09/05 10:00:49;;;;;;;;;;;22.70;29.50;;;;;;4343544;33;20540;-40
2021/09/05 10:03:15;;;;;;;;;;;22.70;29.80;;;;;;4343838;33;19962;-39
2021/09/05 10:05:41;;;;;;;;;;;22.80;29.80;;;;;;4330044;33;19986;-40
2021/09/05 10:08:07;;;;;;;;;;;22.80;29.90;;;;;;4330029;33;19991;-40
2021/09/05 10:10:34;;;;;;;;;;;22.80;29.90;;;;;;4330032;33;20043;-40
2021/09/05 10:13:00;;;;;;;;;;;22.70;29.70;;;;;;4343603;33;19978;-40
2021/09/05 10:15:27;;;;;;;;;;;22.60;29.80;;;;;;4330421;33;20058;-39
2021/09/05 10:17:53;;;;;;;;;;;22.60;30.00;;;;;;4330036;33;20435;-40
2021/09/05 10:20:19;;;;;;;;;;;22.50;29.70;;;;;;4330035;33;19987;-40
2021/09/05 10:22:45;;;;;;;;;;;22.40;29.80;;;;;;4330088;33;20063;-40
2021/09/05 10:25:14;;;;;;;;;;;22.20;30.40;;;;;;4343343;33;20038;-40
2021/09/05 10:27:48;;;;;;;;;;;22.30;30.50;;;;;;4343408;33;19990;-39
2021/09/05 10:30:21;;;;;;;;;;;22.30;30.60;;;;;;4330256;33;20422;-40
2021/09/05 10:32:58;;;;;;;;;;;22.30;30.30;;;;;;4343476;33;20414;-40
2021/09/05 10:35:25;;;;;;;;;;;22.40;29.70;;;;;;4343378;33;19998;-39
2021/09/05 10:38:12;;;;;;;;;;;22.40;28.60;;;;;;4343552;33;20418;-40
2021/09/05 10:40:48;;;;;;;;;;;22.40;28.60;;;;;;4330657;33;20111;-41
2021/09/05 10:43:15;;;;;;;;;;;22.50;28.80;;;;;;4354190;32;20030;-40
2021/09/05 10:45:43;;;;;;;;;;;22.60;28.50;;;;;;4358241;32;20391;-41
2021/09/05 10:48:28;;;;;;;;;;;22.60;28.60;;;;;;4344864;32;20025;-39
2021/09/05 10:51:01;;;;;;;;;;;22.60;28.50;;;;;;4357977;32;20001;-39
2021/09/05 10:53:27;;;;;;;;;;;22.60;28.60;;;;;;4345196;32;19970;-40
2021/09/05 10:56:14;;;;;;;;;;;22.60;28.50;;;;;;4358213;32;19981;-40
2021/09/05 10:58:42;;;;;;;;;;;22.60;28.60;;;;;;4359089;32;19978;-40
2021/09/05 11:01:28;;;;;;;;;;;22.60;28.60;;;;;;4347189;32;19974;-40
2021/09/05 11:07:03;;;;;;;;;;;22.60;28.90;;;;;;4361321;32;20389;-40
2021/09/05 11:09:29;;;;;;;;;;;22.90;29.00;;;;;;4360946;32;19971;-39
2021/09/05 11:11:59;;;;;;;;;;;23.20;28.70;;;;;;4361053;32;19955;-40
2021/09/05 11:14:34;;;;;;;;;;;23.40;28.40;;;;;;4361284;32;19955;-40
2021/09/05 11:17:01;;;;;;;;;;;23.40;28.00;;;;;;4361261;32;20459;-40
2021/09/05 11:19:30;;;;;;;;;;;23.40;27.90;;;;;;4360992;32;20009;-40
2021/09/05 11:21:56;;;;;;;;;;;23.40;27.80;;;;;;4335090;32;19977;-43
2021/09/05 11:24:22;;;;;;;;;;;23.40;27.90;;;;;;4347079;32;20043;-39
2021/09/05 11:27:18;;;;;;;;;;;23.50;28.00;;;;;;4360774;32;19986;-39
2021/09/05 11:29:44;;;;;;;;;;;23.60;28.10;;;;;;4299377;33;20078;-40
2021/09/05 11:32:12;;;;;;;;;;;23.60;27.70;;;;;;4299497;33;20428;-40
2021/09/05 11:34:39;;;;;;;;;;;23.60;27.40;;;;;;4255959;33;20052;-40
2021/09/05 11:37:05;;;;;;;;;;;23.70;27.40;;;;;;4256702;33;19980;-40
2021/09/05 11:39:32;;;;;;;;;;;23.80;27.40;;;;;;4256449;33;20003;-40
2021/09/05 11:41:59;;;;;;;;;;;23.90;27.10;;;;;;4258717;33;20004;-39
2021/09/05 11:44:29;;;;;;;;;;;23.80;27.20;;;;;;4270297;33;19969;-39
2021/09/05 11:47:12;;;;;;;;;;;23.70;27.40;;;;;;4270437;33;20075;-40
2021/09/05 11:49:54;;;;;;;;;;;23.70;27.40;;;;;;4270629;33;19983;-40
2021/09/05 11:52:24;;;;;;;;;;;23.70;27.30;;;;;;4270222;33;19965;-40
2021/09/05 11:55:05;;;;;;;;;;;23.70;27.10;;;;;;4270220;33;20120;-39
2021/09/05 11:57:32;;;;;;;;;;;23.80;27.20;;;;;;4270482;33;20471;-40
2021/09/05 12:00:00;;;;;;;;;;;23.90;27.10;;;;;;4269987;33;19992;-39
2021/09/05 12:02:27;;;;;;;;;;;24.10;27.10;;;;;;4270488;33;19979;-39
2021/09/05 12:04:53;;;;;;;;;;;24.20;27.00;;;;;;4270123;33;19976;-39
2021/09/05 12:07:20;;;;;;;;;;;24.10;26.80;;;;;;4315899;33;19979;-38
2021/09/05 12:09:46;;;;;;;;;;;24.00;26.60;;;;;;4327530;33;19971;-39
2021/09/05 12:12:12;;;;;;;;;;;23.90;26.60;;;;;;4336724;33;20495;-40
2021/09/05 12:14:38;;;;;;;;;;;23.90;26.80;;;;;;4331563;33;19974;-39
2021/09/05 12:17:44;;;;;;;;;;;23.90;26.80;;;;;;4345439;33;19966;-40
2021/09/05 12:20:10;;;;;;;;;;;23.90;27.00;;;;;;4284207;33;19972;-40
2021/09/05 12:22:42;;;;;;;;;;;23.90;27.00;;;;;;4272623;33;19982;-40
2021/09/05 12:25:18;;;;;;;;;;;23.90;27.20;;;;;;4272172;33;19988;-40
2021/09/05 12:28:07;;;;;;;;;;;24.00;27.30;;;;;;4284339;33;19988;-39
2021/09/05 12:30:34;;;;;;;;;;;24.10;27.10;;;;;;4284101;33;19983;-39
2021/09/05 12:33:06;;;;;;;;;;;24.20;27.20;;;;;;4284377;33;20315;-39
2021/09/05 12:35:33;;;;;;;;;;;24.20;27.20;;;;;;4284204;33;19996;-40
2021/09/05 12:38:07;;;;;;;;;;;24.30;27.10;;;;;;4284094;33;20060;-38
2021/09/05 12:40:35;;;;;;;;;;;24.30;27.30;;;;;;4284294;33;20393;-39
2021/09/05 12:43:01;;;;;;;;;;;24.40;27.20;;;;;;4284257;33;20099;-40
2021/09/05 12:45:27;;;;;;;;;;;24.60;27.20;;;;;;4283742;33;20439;-40
2021/09/05 12:48:18;;;;;;;;;;;24.60;27.00;;;;;;4296123;33;19984;-39
2021/09/05 12:50:45;;;;;;;;;;;24.70;27.00;;;;;;4303689;32;20051;-39
2021/09/05 12:53:14;;;;;;;;;;;24.60;26.90;;;;;;4360035;32;19993;-38
2021/09/05 12:55:40;;;;;;;;;;;24.60;26.90;;;;;;4360154;32;20074;-38
2021/09/05 12:58:06;;;;;;;;;;;24.50;26.90;;;;;;4359483;32;20443;-39
2021/09/05 13:00:32;;;;;;;;;;;24.40;27.00;;;;;;4345687;32;20070;-40
2021/09/05 13:03:02;;;;;;;;;;;24.40;26.90;;;;;;4359753;32;20049;-38
2021/09/05 13:05:29;;;;;;;;;;;24.40;26.80;;;;;;4359517;32;19986;-40
2021/09/05 13:07:56;;;;;;;;;;;24.30;26.90;;;;;;4359470;32;20074;-39
2021/09/05 13:10:23;;;;;;;;;;;24.20;27.10;;;;;;4358851;32;20487;-39
2021/09/05 13:12:49;;;;;;;;;;;24.20;27.30;;;;;;4359061;32;20043;-40
2021/09/05 13:15:16;;;;;;;;;;;24.20;27.30;;;;;;4345290;32;20026;-39
2021/09/05 13:17:42;;;;;;;;;;;24.20;27.20;;;;;;4359610;32;19970;-39
2021/09/05 13:20:09;;;;;;;;;;;24.20;27.20;;;;;;4358964;32;20455;-39
2021/09/05 13:22:35;;;;;;;;;;;24.20;27.10;;;;;;4311467;33;20067;-38
2021/09/05 13:25:01;;;;;;;;;;;24.20;27.10;;;;;;4299907;33;19975;-40
2021/09/05 13:27:27;;;;;;;;;;;24.20;26.90;;;;;;4312114;33;19964;-39
2021/09/05 13:29:53;;;;;;;;;;;24.20;27.00;;;;;;4312536;33;20058;-39
2021/09/05 13:32:20;;;;;;;;;;;24.20;27.10;;;;;;4312423;33;20014;-40
2021/09/05 13:34:46;;;;;;;;;;;24.30;27.20;;;;;;4312293;33;20006;-39
2021/09/05 13:37:12;;;;;;;;;;;24.30;27.00;;;;;;4312825;33;20020;-39
2021/09/05 13:39:38;;;;;;;;;;;24.40;27.10;;;;;;4311689;33;20457;-38
2021/09/05 13:42:04;;;;;;;;;;;24.30;26.90;;;;;;4308249;33;20027;-40
2021/09/05 13:44:31;;;;;;;;;;;24.40;27.10;;;;;;4297838;33;20010;-39
2021/09/05 13:46:57;;;;;;;;;;;24.40;27.20;;;;;;4297764;33;20057;-38
2021/09/05 13:49:23;;;;;;;;;;;24.60;27.70;;;;;;4297711;33;20070;-39
2021/09/05 13:51:49;;;;;;;;;;;24.60;27.00;;;;;;4297515;33;20410;-39
2021/09/05 13:54:15;;;;;;;;;;;24.70;27.20;;;;;;4297307;33;20042;-39
2021/09/05 13:56:42;;;;;;;;;;;24.80;27.10;;;;;;4285616;33;20151;-38
2021/09/05 13:59:08;;;;;;;;;;;24.90;27.60;;;;;;4303551;33;19980;-39
2021/09/05 14:01:34;;;;;;;;;;;25.00;26.70;;;;;;4343579;33;20406;-38
2021/09/05 14:04:00;;;;;;;;;;;25.00;26.40;;;;;;4343780;33;20001;-39
2021/09/05 14:06:26;;;;;;;;;;;25.00;26.50;;;;;;4343670;33;20048;-38
2021/09/05 14:08:53;;;;;;;;;;;25.00;26.60;;;;;;4343827;33;20041;-39
2021/09/05 14:11:19;;;;;;;;;;;25.00;26.80;;;;;;4343803;33;19971;-39
2021/09/05 14:13:45;;;;;;;;;;;25.10;26.90;;;;;;4343588;33;19963;-39
2021/09/05 14:16:11;;;;;;;;;;;25.20;26.90;;;;;;4343969;33;20522;-39
2021/09/05 14:18:40;;;;;;;;;;;25.20;26.90;;;;;;4343558;33;19973;-39
2021/09/05 14:21:06;;;;;;;;;;;25.20;26.90;;;;;;4343864;33;19982;-43
2021/09/05 14:23:34;;;;;;;;;;;25.20;26.90;;;;;;4343277;33;19970;-39